Time;durP1;ratioP1;P1;durP2;ratioP2;P2;SDS_P1;SDS_P2;PMS_P1;PMS_P2;Temp;Humidity;BMP_temperature;BMP_pressure;BME280_temperature;BME280_humidity;BME280_pressure;Samples;Min_cycle;Max_cycle;Signal;HPM_P1;HPM_P2
2023/12/14 00:01:34;;;;;;;3.07;1.70;;;;;;;-145.69;62.19;52349.31;4936230;29;20214;-80
2023/12/14 00:04:02;;;;;;;5.47;1.97;;;;;;;-145.69;62.71;52309.72;4936258;29;20203;-80
2023/12/14 00:06:29;;;;;;;3.40;1.70;;;;;;;-145.69;62.04;52274.06;4934975;29;20235;-80
2023/12/14 00:08:55;;;;;;;2.97;1.97;;;;;;;-145.69;62.34;52357.25;4918988;29;20607;-81
2023/12/14 00:11:22;;;;;;;3.70;1.70;;;;;;;-145.69;62.26;52313.69;4916836;29;20239;-80
2023/12/14 00:13:49;;;;;;;6.07;1.87;;;;;;;-145.69;62.14;52325.56;4921650;29;20207;-80
2023/12/14 00:16:16;;;;;;;3.17;1.97;;;;;;;-145.69;62.17;52321.59;4936102;29;20207;-80
2023/12/14 00:18:42;;;;;;;3.30;2.00;;;;;;;-145.69;62.56;52329.53;4936088;29;20208;-81
2023/12/14 00:21:09;;;;;;;3.53;2.10;;;;;;;-145.69;62.56;52331.50;4935724;29;20555;-80
2023/12/14 00:23:35;;;;;;;3.47;1.83;;;;;;;-145.69;62.46;52347.34;4936067;29;20214;-80
2023/12/14 00:26:02;;;;;;;4.10;2.17;;;;;;;-145.69;62.25;52327.53;4935271;29;20211;-80
2023/12/14 00:28:29;;;;;;;3.53;1.77;;;;;;;-145.69;62.16;52321.59;4936114;29;20294;-80
2023/12/14 00:30:57;;;;;;;2.87;1.70;;;;;;;-145.69;62.06;52333.47;4935829;29;20199;-81
2023/12/14 00:33:23;;;;;;;2.97;1.90;;;;;;;-145.69;62.24;52321.59;4935945;29;20203;-80
2023/12/14 00:35:50;;;;;;;1.77;1.63;;;;;;;-145.69;62.26;52317.66;4935785;29;20571;-80
2023/12/14 00:38:16;;;;;;;3.20;1.90;;;;;;;-145.69;62.65;52341.41;4935800;29;20212;-80
2023/12/14 00:40:43;;;;;;;4.13;1.83;;;;;;;-145.69;62.60;52371.13;4935619;29;20210;-81
2023/12/14 00:43:09;;;;;;;3.57;1.70;;;;;;;-145.69;62.38;52319.63;4933590;29;20219;-80
2023/12/14 00:45:36;;;;;;;3.10;1.83;;;;;;;-145.69;62.66;52317.66;4935383;29;20588;-81
2023/12/14 00:48:04;;;;;;;3.20;1.63;;;;;;;-145.69;62.37;52345.38;4935283;29;20726;-80
2023/12/14 00:50:31;;;;;;;3.60;1.60;;;;;;;-145.69;62.23;52307.75;4935152;29;20532;-80
2023/12/14 00:52:57;;;;;;;2.20;1.63;;;;;;;-145.69;62.37;52321.59;4935405;29;20231;-80
2023/12/14 00:55:24;;;;;;;3.00;1.57;;;;;;;-145.69;62.46;52303.78;4935459;29;20559;-79
2023/12/14 00:57:50;;;;;;;3.50;1.90;;;;;;;-145.69;62.54;52341.41;4935278;29;20199;-80
2023/12/14 01:00:17;;;;;;;5.53;1.80;;;;;;;-145.69;62.34;52327.53;4935145;29;20207;-81
2023/12/14 01:02:44;;;;;;;2.53;1.57;;;;;;;-145.69;62.34;52361.22;4935006;29;20215;-81
2023/12/14 01:05:12;;;;;;;3.57;1.83;;;;;;;-145.69;62.16;52313.69;4935409;29;20208;-80
2023/12/14 01:07:38;;;;;;;1.67;1.30;;;;;;;-145.69;62.71;52327.53;4932856;29;20203;-80
2023/12/14 01:10:06;;;;;;;3.00;1.70;;;;;;;-145.69;62.42;52321.59;4935035;29;20242;-81
2023/12/14 01:12:32;;;;;;;4.17;1.67;;;;;;;-145.69;62.22;52301.81;4934310;29;20257;-81
2023/12/14 01:14:59;;;;;;;2.27;1.53;;;;;;;-145.69;62.30;52349.31;4934129;29;20210;-81
2023/12/14 01:17:25;;;;;;;4.57;1.73;;;;;;;-145.69;61.95;52333.47;4935177;29;20203;-80
2023/12/14 01:19:52;;;;;;;2.83;1.63;;;;;;;-145.69;62.06;52345.38;4935282;29;20204;-80
2023/12/14 01:22:19;;;;;;;1.83;1.53;;;;;;;-145.69;61.42;52345.38;4935025;29;20208;-80
2023/12/14 01:24:46;;;;;;;3.93;1.40;;;;;;;-145.69;61.71;52309.72;4929153;29;20203;-80
2023/12/14 01:27:13;;;;;;;2.17;1.60;;;;;;;-145.69;61.68;52347.34;4933111;29;20204;-80
2023/12/14 01:29:40;;;;;;;3.97;1.63;;;;;;;-145.69;62.06;52309.72;4931688;29;20203;-81
2023/12/14 01:32:07;;;;;;;2.77;1.70;;;;;;;-145.69;62.29;52361.22;4933332;29;20234;-80
2023/12/14 01:34:33;;;;;;;4.93;2.10;;;;;;;-145.69;62.38;52329.53;4935173;29;20207;-80
2023/12/14 01:37:00;;;;;;;3.10;1.40;;;;;;;-145.69;61.98;52337.44;4934863;29;20204;-80
2023/12/14 01:39:28;;;;;;;2.63;1.50;;;;;;;-145.69;62.14;52335.47;4934190;29;20211;-80
2023/12/14 01:41:54;;;;;;;4.07;2.33;;;;;;;-145.69;62.02;52333.47;4934939;29;20211;-80
2023/12/14 01:44:20;;;;;;;2.20;1.50;;;;;;;-145.69;61.53;52337.44;4934957;29;20206;-80
2023/12/14 01:46:47;;;;;;;2.57;1.50;;;;;;;-145.69;61.79;52282.00;4935070;29;20204;-80
2023/12/14 01:49:13;;;;;;;2.20;1.47;;;;;;;-145.69;61.53;52337.44;4934662;29;20796;-82
2023/12/14 01:51:40;;;;;;;3.00;1.40;;;;;;;-145.69;61.81;52309.72;4934675;29;20230;-81
2023/12/14 01:54:07;;;;;;;1.93;1.47;;;;;;;-145.69;62.29;52325.56;4936773;29;20214;-80
2023/12/14 01:56:35;;;;;;;3.07;1.53;;;;;;;-145.69;61.79;52345.38;4938417;29;20204;-80
2023/12/14 01:59:01;;;;;;;1.83;1.30;;;;;;;-145.69;61.79;52283.97;4938517;29;20200;-80
2023/12/14 02:01:37;;;;;;;4.20;1.53;;;;;;;-145.69;62.19;52313.69;4935229;29;20203;-80
2023/12/14 02:04:06;;;;;;;2.40;1.23;;;;;;;-145.69;62.37;52367.16;4938249;29;20210;-81
2023/12/14 02:06:32;;;;;;;1.83;1.20;;;;;;;-145.69;62.52;52339.44;4938316;29;20212;-81
2023/12/14 02:08:59;;;;;;;2.17;1.20;;;;;;;-145.69;62.44;52321.59;4938086;29;20235;-81
2023/12/14 02:11:25;;;;;;;1.87;1.30;;;;;;;-145.69;62.16;52319.63;4937609;29;20214;-80
2023/12/14 02:13:53;;;;;;;1.50;1.20;;;;;;;-145.69;62.06;52323.59;4937483;29;20555;-80
2023/12/14 02:16:20;;;;;;;2.97;0.90;;;;;;;-145.69;62.04;52321.59;4938171;29;20210;-81
2023/12/14 02:18:46;;;;;;;1.97;1.10;;;;;;;-145.69;61.91;52313.69;4937901;29;20745;-81
2023/12/14 02:21:13;;;;;;;1.90;1.30;;;;;;;-145.69;62.44;52341.41;4938073;29;20199;-81
2023/12/14 02:23:44;;;;;;;1.67;1.20;;;;;;;-145.69;62.02;52321.59;4938272;29;20211;-80
2023/12/14 02:26:11;;;;;;;1.53;1.10;;;;;;;-145.69;62.68;52369.13;4938133;29;20223;-81
2023/12/14 02:28:37;;;;;;;1.60;1.00;;;;;;;-145.69;62.05;52373.09;4937824;29;20658;-81
2023/12/14 02:31:04;;;;;;;1.30;1.00;;;;;;;-145.69;62.42;52327.53;4937981;29;20567;-81
2023/12/14 02:33:30;;;;;;;1.30;0.90;;;;;;;-145.69;62.82;52343.38;4937784;29;20590;-81
2023/12/14 02:35:57;;;;;;;0.93;0.93;;;;;;;-145.69;62.19;52307.75;4937684;29;20306;-81
2023/12/14 02:38:24;;;;;;;1.40;0.90;;;;;;;-145.69;62.59;52337.44;4937501;29;20203;-81
2023/12/14 02:40:52;;;;;;;1.07;1.00;;;;;;;-145.69;62.62;52315.66;4937686;29;20204;-80
2023/12/14 02:43:19;;;;;;;2.00;1.10;;;;;;;-145.69;62.34;52325.56;4937441;29;20213;-81
2023/12/14 02:45:45;;;;;;;2.27;1.43;;;;;;;-145.69;62.28;52349.31;4937032;29;20211;-81
2023/12/14 02:48:12;;;;;;;1.30;1.20;;;;;;;-145.69;62.06;52349.31;4937831;29;20203;-81
2023/12/14 02:50:39;;;;;;;1.57;1.40;;;;;;;-145.69;62.44;52357.25;4937654;29;20222;-80
2023/12/14 02:53:05;;;;;;;1.07;0.97;;;;;;;-145.69;62.41;52345.38;4937316;29;20238;-81
2023/12/14 02:55:32;;;;;;;1.83;1.20;;;;;;;-145.69;62.48;52333.47;4936926;29;20207;-82
2023/12/14 02:57:59;;;;;;;2.33;1.17;;;;;;;-145.69;62.44;52335.47;4937143;29;20215;-80
2023/12/14 03:00:26;;;;;;;1.90;1.40;;;;;;;-145.69;62.05;52315.66;4937265;29;20218;-81
2023/12/14 03:02:53;;;;;;;3.33;1.60;;;;;;;-145.69;62.31;52317.66;4936615;29;20282;-81
2023/12/14 03:05:19;;;;;;;3.27;1.43;;;;;;;-145.69;62.37;52335.47;4935717;29;20674;-81
2023/12/14 03:07:46;;;;;;;1.13;1.03;;;;;;;-145.69;62.06;52349.31;4936761;29;20203;-82
2023/12/14 03:10:12;;;;;;;1.57;0.83;;;;;;;-145.69;62.22;52347.34;4937272;29;20211;-81
2023/12/14 03:12:39;;;;;;;1.70;1.20;;;;;;;-145.69;61.98;52359.22;4924599;29;20465;-81
2023/12/14 03:15:08;;;;;;;1.23;1.00;;;;;;;-145.69;62.06;52331.50;4927362;29;20207;-81
2023/12/14 03:17:35;;;;;;;1.57;1.00;;;;;;;-145.69;62.02;52317.66;4937259;29;20600;-82
2023/12/14 03:20:03;;;;;;;2.23;1.23;;;;;;;-145.69;62.31;52323.59;4937018;29;20214;-81
2023/12/14 03:22:29;;;;;;;1.90;1.00;;;;;;;-145.69;62.31;52321.59;4937099;29;20243;-81
2023/12/14 03:24:56;;;;;;;1.30;1.00;;;;;;;-145.69;62.08;52335.47;4936946;29;20266;-81
2023/12/14 03:27:24;;;;;;;1.13;1.03;;;;;;;-145.69;61.97;52329.53;4936721;29;20659;-81
2023/12/14 03:29:51;;;;;;;1.87;0.97;;;;;;;-145.69;62.22;52321.59;4937094;29;20214;-81
2023/12/14 03:32:19;;;;;;;1.57;1.03;;;;;;;-145.69;62.02;52309.72;4937027;29;20239;-81
2023/12/14 03:34:45;;;;;;;1.33;1.13;;;;;;;-145.69;62.14;52317.66;4935998;29;20275;-81
2023/12/14 03:37:12;;;;;;;2.27;1.00;;;;;;;-145.69;62.27;52317.66;4919691;29;20216;-81
2023/12/14 03:39:39;;;;;;;0.97;0.90;;;;;;;-145.69;62.26;52365.16;4936630;29;20647;-81
2023/12/14 03:42:05;;;;;;;1.57;1.10;;;;;;;-145.69;62.26;52343.38;4936563;29;20204;-81
2023/12/14 03:44:32;;;;;;;1.80;1.23;;;;;;;-145.69;62.35;52339.44;4936423;29;20210;-81
2023/12/14 03:47:00;;;;;;;1.33;0.90;;;;;;;-145.69;61.72;52335.47;4936854;29;20199;-81
2023/12/14 03:49:28;;;;;;;0.93;0.90;;;;;;;-145.69;62.35;52323.59;4936615;29;20203;-81
2023/12/14 03:51:57;;;;;;;1.07;0.97;;;;;;;-145.69;62.24;52321.59;4936518;29;20210;-81
2023/12/14 03:54:23;;;;;;;1.23;1.17;;;;;;;-145.69;61.90;52333.47;4927346;29;20287;-81
2023/12/14 03:56:50;;;;;;;0.90;0.90;;;;;;;-145.69;62.24;52297.84;4917719;29;20246;-81
2023/12/14 03:59:16;;;;;;;1.37;1.00;;;;;;;-145.69;62.06;52325.56;4917335;29;20659;-81
2023/12/14 04:01:43;;;;;;;2.03;1.00;;;;;;;-145.69;62.26;52315.66;4917567;29;20204;-81
2023/12/14 04:04:09;;;;;;;2.10;1.10;;;;;;;-145.69;61.79;52343.38;4926776;29;20196;-81
2023/12/14 04:06:36;;;;;;;1.97;1.40;;;;;;;-145.69;61.94;52325.56;4936357;29;20207;-81
2023/12/14 04:09:03;;;;;;;2.73;1.27;;;;;;;-145.69;62.09;52270.13;4935886;29;20657;-80
2023/12/14 04:11:29;;;;;;;1.77;1.23;;;;;;;-145.69;62.13;52339.44;4935967;29;20210;-80
2023/12/14 04:13:55;;;;;;;2.23;1.40;;;;;;;-145.69;62.08;52329.53;4935430;29;20232;-80
2023/12/14 04:16:22;;;;;;;4.27;1.40;;;;;;;-145.69;62.15;52337.44;4935227;29;20208;-80
2023/12/14 04:18:49;;;;;;;2.37;1.50;;;;;;;-145.69;62.24;52313.69;4935563;29;20203;-80
2023/12/14 04:21:15;;;;;;;1.70;1.30;;;;;;;-145.69;61.99;52329.53;4935869;29;20207;-80
2023/12/14 04:23:45;;;;;;;2.47;1.60;;;;;;;-145.69;61.90;52341.41;4935635;29;20563;-80
2023/12/14 04:26:13;;;;;;;3.23;1.40;;;;;;;-145.69;62.01;52317.66;4936057;29;20203;-81
2023/12/14 04:28:40;;;;;;;4.23;1.87;;;;;;;-145.69;61.84;52333.47;4935952;29;20211;-80
2023/12/14 04:31:06;;;;;;;3.87;1.93;;;;;;;-145.69;61.96;52345.38;4934887;29;20554;-81
2023/12/14 04:33:33;;;;;;;3.43;1.73;;;;;;;-145.69;61.74;52317.66;4935440;29;20686;-81
2023/12/14 04:35:59;;;;;;;2.97;1.27;;;;;;;-145.69;61.72;52329.53;4935407;29;20203;-81
2023/12/14 04:38:26;;;;;;;1.83;1.60;;;;;;;-145.69;61.42;52329.53;4935774;29;20217;-81
2023/12/14 04:40:54;;;;;;;1.87;1.53;;;;;;;-145.69;61.01;52313.69;4935420;29;20207;-81
2023/12/14 04:43:20;;;;;;;3.97;1.83;;;;;;;-145.69;61.59;52319.63;4935537;29;20239;-81
2023/12/14 04:45:47;;;;;;;2.70;1.60;;;;;;;-145.69;61.40;52309.72;4935082;29;20730;-80
2023/12/14 04:48:13;;;;;;;3.33;2.10;;;;;;;-145.69;61.11;52295.84;4935570;29;20203;-81
2023/12/14 04:50:40;;;;;;;2.90;2.10;;;;;;;-145.69;60.60;52331.50;4935486;29;20203;-81
2023/12/14 04:53:07;;;;;;;2.65;1.98;;;;;;;-145.69;61.04;52325.56;4934669;29;20469;-81
2023/12/14 04:55:33;;;;;;;3.67;1.73;;;;;;;-145.69;60.80;52321.59;4935345;29;20220;-81
2023/12/14 04:58:01;;;;;;;1.67;1.57;;;;;;;-145.69;60.84;52317.66;4935115;29;20196;-80
2023/12/14 05:00:27;;;;;;;2.87;1.60;;;;;;;-145.69;60.45;52321.59;4935409;29;20211;-81
2023/12/14 05:02:54;;;;;;;2.47;1.83;;;;;;;-145.69;60.50;52309.72;4935605;29;20242;-80
2023/12/14 05:05:20;;;;;;;2.90;1.93;;;;;;;-145.69;61.06;52337.44;4935537;29;20214;-81
2023/12/14 05:07:47;;;;;;;2.87;1.93;;;;;;;-145.69;60.47;52301.81;4935559;29;20211;-81
2023/12/14 05:10:13;;;;;;;3.30;2.13;;;;;;;-145.69;60.52;52317.66;4935201;29;20211;-81
2023/12/14 05:12:40;;;;;;;3.73;1.90;;;;;;;-145.69;60.65;52305.75;4934197;29;20547;-80
2023/12/14 05:15:08;;;;;;;3.77;1.67;;;;;;;-145.69;60.71;52309.72;4934514;29;20294;-81
2023/12/14 05:17:36;;;;;;;3.43;1.80;;;;;;;-145.69;60.86;52325.56;4935400;29;20243;-82
2023/12/14 05:20:04;;;;;;;2.83;2.17;;;;;;;-145.69;60.26;52309.72;4934896;29;20206;-81
2023/12/14 05:22:30;;;;;;;3.17;1.93;;;;;;;-145.69;60.49;52283.97;4935345;29;20202;-82
2023/12/14 05:24:57;;;;;;;4.30;2.80;;;;;;;-145.69;60.11;52301.81;4935026;29;20203;-82
2023/12/14 05:27:24;;;;;;;3.87;2.87;;;;;;;-145.69;60.65;52345.38;4935603;29;20214;-81
2023/12/14 05:29:51;;;;;;;6.80;2.97;;;;;;;-145.69;61.08;52323.59;4937885;29;20203;-81
2023/12/14 05:32:19;;;;;;;4.33;2.50;;;;;;;-145.69;61.05;52337.44;4938295;29;20567;-81
2023/12/14 05:34:45;;;;;;;2.77;1.70;;;;;;;-145.69;60.63;52317.66;4938973;29;20231;-81
2023/12/14 05:37:12;;;;;;;4.93;1.57;;;;;;;-145.69;60.59;52347.34;4938730;29;20215;-81
2023/12/14 05:39:42;;;;;;;1.27;1.17;;;;;;;-145.69;60.43;52291.91;4938811;29;20207;-80
2023/12/14 05:42:08;;;;;;;2.00;1.50;;;;;;;-145.69;61.46;52321.59;4938237;29;20823;-81
2023/12/14 05:44:35;;;;;;;3.40;1.20;;;;;;;-145.69;60.91;52301.81;4938530;29;20226;-82
2023/12/14 05:47:01;;;;;;;1.97;1.27;;;;;;;-145.69;60.37;52349.31;4935677;29;20680;-81
2023/12/14 05:49:29;;;;;;;3.37;1.53;;;;;;;-145.69;60.51;52341.41;4938273;29;20210;-81
2023/12/14 05:51:56;;;;;;;1.60;1.50;;;;;;;-145.69;60.36;52341.41;4938837;29;20204;-81
2023/12/14 05:54:23;;;;;;;1.70;1.33;;;;;;;-145.69;60.84;52317.66;4938640;29;20343;-81
2023/12/14 05:56:50;;;;;;;2.47;1.43;;;;;;;-145.69;60.37;52325.56;4937973;29;20203;-83
2023/12/14 05:59:16;;;;;;;2.70;1.60;;;;;;;-145.69;60.50;52325.56;4938657;29;20234;-81
2023/12/14 06:01:43;;;;;;;1.87;1.77;;;;;;;-145.69;60.29;52321.59;4938598;29;20207;-81
2023/12/14 06:04:10;;;;;;;2.80;1.77;;;;;;;-145.69;60.64;52331.50;4938514;29;20207;-81
2023/12/14 06:06:40;;;;;;;3.20;1.70;;;;;;;-145.69;60.41;52327.53;4938376;29;20707;-81
2023/12/14 06:09:07;;;;;;;2.03;1.70;;;;;;;-145.69;61.05;52305.75;4938384;29;20278;-81
2023/12/14 06:11:33;;;;;;;3.53;1.90;;;;;;;-145.69;60.39;52319.63;4938381;29;20204;-80
2023/12/14 06:14:00;;;;;;;3.33;2.10;;;;;;;-145.69;60.56;52341.41;4937880;29;20259;-81
2023/12/14 06:16:27;;;;;;;7.70;2.40;;;;;;;-145.69;60.57;52349.31;4938349;29;20235;-81
2023/12/14 06:18:53;;;;;;;2.17;1.70;;;;;;;-145.69;61.33;52299.81;4937868;29;20199;-81
2023/12/14 06:21:20;;;;;;;4.37;3.20;;;;;;;-145.69;61.19;52335.47;4938104;29;20635;-81
2023/12/14 06:23:48;;;;;;;2.47;2.17;;;;;;;-145.69;61.13;52323.59;4938173;29;20230;-81
2023/12/14 06:26:14;;;;;;;3.57;2.30;;;;;;;-145.69;60.92;52321.59;4937617;29;20214;-81
2023/12/14 06:28:41;;;;;;;4.33;2.30;;;;;;;-145.69;61.19;52333.47;4937947;29;20203;-81
2023/12/14 06:31:13;;;;;;;2.60;2.22;;;;;;;-145.69;61.34;52355.28;4937021;29;20457;-81
2023/12/14 06:33:39;;;;;;;2.90;2.20;;;;;;;-145.69;61.54;52303.78;4937899;29;20234;-80
2023/12/14 06:36:07;;;;;;;3.70;2.70;;;;;;;-145.69;61.41;52331.50;4937959;29;20246;-81
2023/12/14 06:38:34;;;;;;;5.93;2.60;;;;;;;-145.69;60.59;52313.69;4936915;29;20204;-80
2023/12/14 06:41:02;;;;;;;3.40;2.00;;;;;;;-145.69;61.23;52331.50;4936776;29;20226;-80
2023/12/14 06:43:29;;;;;;;8.47;2.60;;;;;;;-145.69;61.14;52337.44;4937888;29;20203;-81
2023/12/14 06:45:55;;;;;;;3.43;2.07;;;;;;;-145.69;61.48;52297.84;4937289;29;20218;-81
2023/12/14 06:48:22;;;;;;;4.13;2.13;;;;;;;-145.69;61.20;52283.97;4937602;29;20207;-80
2023/12/14 06:50:49;;;;;;;4.07;2.50;;;;;;;-145.69;61.51;52321.59;4936587;29;20203;-80
2023/12/14 06:53:15;;;;;;;2.37;2.10;;;;;;;-145.69;61.38;52309.72;4937539;29;20235;-81
2023/12/14 06:55:42;;;;;;;2.30;1.90;;;;;;;-145.69;60.94;52325.56;4937419;29;20230;-81
2023/12/14 06:58:11;;;;;;;5.43;2.17;;;;;;;-145.69;61.53;52319.63;4937755;29;20207;-80
2023/12/14 07:00:38;;;;;;;2.40;1.80;;;;;;;-145.69;61.61;52319.63;4937676;29;20603;-81
2023/12/14 07:03:04;;;;;;;2.63;2.03;;;;;;;-145.69;61.44;52313.69;4937357;29;20210;-80
2023/12/14 07:05:32;;;;;;;6.47;2.10;;;;;;;-145.69;61.43;52341.41;4936680;29;20211;-80
2023/12/14 07:07:58;;;;;;;2.50;1.90;;;;;;;-145.69;60.80;52325.56;4937385;29;20207;-80
2023/12/14 07:10:25;;;;;;;2.63;1.80;;;;;;;-145.69;61.07;52331.50;4937286;29;20211;-80
2023/12/14 07:12:52;;;;;;;2.17;1.80;;;;;;;-145.69;60.75;52343.38;4937213;29;20559;-80
2023/12/14 07:15:20;;;;;;;2.43;1.87;;;;;;;-145.69;60.66;52327.53;4937263;29;20239;-80
2023/12/14 07:17:46;;;;;;;2.93;1.93;;;;;;;-145.69;60.61;52291.91;4937094;29;20208;-80
2023/12/14 07:20:13;;;;;;;4.17;2.40;;;;;;;-145.69;61.00;52341.41;4923949;29;20226;-81
2023/12/14 07:22:39;;;;;;;3.47;2.30;;;;;;;-145.69;61.27;52337.44;4936792;29;20215;-80
2023/12/14 07:25:06;;;;;;;3.40;1.80;;;;;;;-145.69;60.76;52317.66;4936822;29;20214;-80
2023/12/14 07:27:33;;;;;;;2.60;2.13;;;;;;;-145.69;60.92;52333.47;4936900;29;20207;-79
2023/12/14 07:29:59;;;;;;;2.87;2.30;;;;;;;-145.69;60.61;52315.66;4936803;29;20222;-81
2023/12/14 07:32:27;;;;;;;3.27;2.33;;;;;;;-145.69;60.93;52313.69;4937013;29;20203;-80
2023/12/14 07:34:54;;;;;;;2.40;1.97;;;;;;;-145.69;60.37;52305.75;4936776;29;20235;-80
2023/12/14 07:37:21;;;;;;;3.17;2.60;;;;;;;-145.69;61.14;52307.75;4936760;29;20282;-80
2023/12/14 07:39:47;;;;;;;4.27;2.60;;;;;;;-145.69;60.86;52274.06;4936760;29;20211;-80
2023/12/14 07:42:19;;;;;;;13.30;7.10;;;;;;;-145.69;60.86;52311.69;4929776;29;20668;-81
2023/12/14 07:44:45;;;;;;;3.43;2.20;;;;;;;-145.69;60.61;52287.94;4927635;29;20195;-80
2023/12/14 07:47:12;;;;;;;1.97;1.77;;;;;;;-145.69;60.83;52311.69;4931078;29;20212;-80
2023/12/14 07:49:40;;;;;;;3.10;2.30;;;;;;;-145.69;60.49;52313.69;4931436;29;20295;-80
2023/12/14 07:52:07;;;;;;;3.53;2.47;;;;;;;-145.69;60.45;52303.78;4933811;29;20210;-80
2023/12/14 07:54:33;;;;;;;6.17;3.20;;;;;;;-145.69;60.76;52317.66;4933466;29;20322;-81
2023/12/14 07:57:00;;;;;;;4.73;2.57;;;;;;;-145.69;60.59;52303.78;4933863;29;20211;-80
2023/12/14 07:59:26;;;;;;;4.70;2.83;;;;;;;-145.69;60.73;52317.66;4935727;29;20208;-81
2023/12/14 08:01:53;;;;;;;3.43;2.60;;;;;;;-145.69;60.53;52321.59;4936418;29;20218;-81
2023/12/14 08:04:19;;;;;;;3.63;2.60;;;;;;;-145.69;60.75;52307.75;4935601;29;20238;-81
2023/12/14 08:06:47;;;;;;;3.70;2.87;;;;;;;-145.69;60.86;52317.66;4936434;29;20291;-81
2023/12/14 08:09:14;;;;;;;2.50;2.17;;;;;;;-145.69;61.08;52325.56;4935595;29;20238;-81
2023/12/14 08:11:40;;;;;;;2.00;1.70;;;;;;;-145.69;60.65;52309.72;4936186;29;20561;-80
2023/12/14 08:14:07;;;;;;;9.73;4.37;;;;;;;-145.69;60.81;52315.66;4935931;29;20227;-81
2023/12/14 08:16:33;;;;;;;11.67;6.47;;;;;;;-145.69;60.59;52303.78;4936011;29;20563;-80
2023/12/14 08:19:00;;;;;;;6.67;3.90;;;;;;;-145.69;60.49;52329.53;4930942;29;20203;-80
2023/12/14 08:21:26;;;;;;;3.30;2.37;;;;;;;-145.69;60.21;52299.81;4928062;29;20204;-81
2023/12/14 08:23:54;;;;;;;3.23;2.50;;;;;;;-145.69;60.88;52329.53;4936122;29;20211;-81
2023/12/14 08:26:21;;;;;;;3.40;2.53;;;;;;;-145.69;61.16;52325.56;4936015;29;20548;-81
2023/12/14 08:28:47;;;;;;;4.00;2.33;;;;;;;-145.69;60.82;52333.47;4935834;29;20617;-81
2023/12/14 08:31:14;;;;;;;4.00;3.10;;;;;;;-145.69;61.54;52305.75;4936039;29;20257;-81
2023/12/14 08:33:42;;;;;;;5.63;3.00;;;;;;;-145.69;61.50;52319.63;4935723;29;20203;-80
2023/12/14 08:36:09;;;;;;;7.17;3.90;;;;;;;-145.69;60.90;52282.00;4935490;29;20208;-78
2023/12/14 08:38:36;;;;;;;4.03;2.77;;;;;;;-145.69;60.66;52303.78;4935742;29;20200;-79
2023/12/14 08:41:04;;;;;;;3.77;2.77;;;;;;;-145.69;61.00;52301.81;4936000;29;20290;-78
2023/12/14 08:43:30;;;;;;;2.67;2.37;;;;;;;-145.69;61.51;52355.28;4935803;29;20206;-78
2023/12/14 08:45:57;;;;;;;3.90;2.33;;;;;;;-145.69;61.24;52319.63;4935114;29;20210;-78
2023/12/14 08:48:23;;;;;;;6.10;3.63;;;;;;;-145.69;60.83;52285.97;4935495;29;20217;-78
2023/12/14 08:50:50;;;;;;;2.73;1.80;;;;;;;-145.69;60.65;52331.50;4935461;29;20195;-78
2023/12/14 08:53:16;;;;;;;4.30;2.83;;;;;;;-145.69;60.85;52331.50;4935692;29;20203;-78
2023/12/14 08:55:43;;;;;;;3.03;2.10;;;;;;;-145.69;61.20;52313.69;4935559;29;20237;-78
2023/12/14 08:58:11;;;;;;;3.60;1.83;;;;;;;-145.69;60.84;52289.91;4935737;29;20208;-78
2023/12/14 09:00:38;;;;;;;1.53;1.43;;;;;;;-145.69;61.24;52319.63;4935183;29;20202;-78
2023/12/14 09:03:04;;;;;;;1.83;1.50;;;;;;;-145.69;61.33;52295.84;4935887;29;20203;-79
2023/12/14 09:05:31;;;;;;;1.80;1.70;;;;;;;-145.69;61.25;52329.53;4938824;29;20657;-78
2023/12/14 09:07:59;;;;;;;2.60;2.10;;;;;;;-145.69;60.84;52331.50;4939449;29;20215;-78
2023/12/14 09:10:25;;;;;;;5.30;2.53;;;;;;;-145.69;60.96;52303.78;4939450;29;20286;-79
2023/12/14 09:12:52;;;;;;;2.30;1.80;;;;;;;-145.69;61.24;52301.81;4939438;29;20207;-78
2023/12/14 09:15:20;;;;;;;10.97;4.30;;;;;;;-145.69;60.50;52309.72;4936486;29;20728;-79
2023/12/14 09:17:47;;;;;;;7.07;3.03;;;;;;;-145.69;60.19;52309.72;4936789;29;20203;-79
2023/12/14 09:20:13;;;;;;;3.60;2.80;;;;;;;-145.69;59.54;52297.84;4936218;29;20207;-80
2023/12/14 09:22:40;;;;;;;5.67;3.17;;;;;;;-145.69;60.19;52305.75;4935641;29;20206;-79
2023/12/14 09:25:09;;;;;;;8.83;3.60;;;;;;;-145.69;60.11;52305.75;4936480;29;20200;-79
2023/12/14 09:27:38;;;;;;;6.90;4.23;;;;;;;-145.69;59.94;52305.75;4938733;29;20203;-79
2023/12/14 09:30:06;;;;;;;6.53;3.40;;;;;;;-145.69;60.31;52301.81;4939021;29;20234;-78
2023/12/14 09:32:34;;;;;;;3.23;2.40;;;;;;;-145.69;59.58;52287.94;4938688;29;20206;-79
2023/12/14 09:35:00;;;;;;;2.43;2.10;;;;;;;-145.69;59.71;52341.41;4938715;29;20587;-78
2023/12/14 09:37:27;;;;;;;6.33;2.90;;;;;;;-145.69;59.18;52283.97;4938938;29;20210;-80
2023/12/14 09:39:53;;;;;;;3.50;2.43;;;;;;;-145.69;59.13;52293.88;4938497;29;20229;-79
2023/12/14 09:42:21;;;;;;;2.83;1.57;;;;;;;-145.69;58.83;52303.78;4938578;29;20753;-78
2023/12/14 09:44:48;;;;;;;5.77;2.20;;;;;;;-145.69;58.77;52329.53;4928444;29;20295;-78
2023/12/14 09:47:15;;;;;;;1.80;1.70;;;;;;;-145.69;59.22;52303.78;4938612;29;20210;-78
2023/12/14 09:49:44;;;;;;;4.73;2.10;;;;;;;-145.69;59.83;52297.84;4938454;29;20631;-79
2023/12/14 09:52:11;;;;;;;2.23;1.67;;;;;;;-145.69;59.97;52305.75;4938635;29;20302;-79
2023/12/14 09:54:37;;;;;;;2.00;1.67;;;;;;;-145.69;60.99;52325.56;4938517;29;20718;-78
2023/12/14 09:57:04;;;;;;;1.87;1.60;;;;;;;-145.69;60.72;52293.88;4938356;29;20673;-79
2023/12/14 09:59:31;;;;;;;3.20;1.70;;;;;;;-145.69;60.82;52313.69;4938733;29;20255;-79
2023/12/14 10:02:10;;;;;;;2.20;1.77;;;;;;;-145.69;61.44;52301.81;4938717;29;20210;-79
2023/12/14 10:04:36;;;;;;;4.07;1.90;;;;;;;-145.69;61.45;52329.53;4938105;29;20210;-78
2023/12/14 10:07:06;;;;;;;3.60;2.17;;;;;;;-145.69;61.24;52291.91;4937629;29;20447;-79
2023/12/14 10:09:33;;;;;;;2.57;1.80;;;;;;;-145.69;61.09;52293.88;4936251;29;20338;-79
2023/12/14 10:12:04;;;;;;;1.23;1.00;;;;;;;-145.69;60.23;52311.69;4936703;29;20211;-80
2023/12/14 10:14:31;;;;;;;2.50;1.40;;;;;;;-145.69;60.09;52285.97;4936485;29;20230;-79
2023/12/14 10:16:59;;;;;;;1.87;1.40;;;;;;;-145.69;59.15;52285.97;4936216;29;20215;-79
2023/12/14 10:19:26;;;;;;;1.00;0.90;;;;;;;-145.69;59.76;52307.75;4936678;29;20267;-79
2023/12/14 10:21:52;;;;;;;1.17;1.07;;;;;;;-145.69;58.98;52262.19;4936501;29;20278;-79
2023/12/14 10:24:20;;;;;;;2.00;1.10;;;;;;;-145.69;58.91;52282.00;4938184;29;20227;-79
2023/12/14 10:26:47;;;;;;;0.90;0.90;;;;;;;-145.69;57.85;52301.81;4938218;29;20207;-79
2023/12/14 10:29:14;;;;;;;0.80;0.80;;;;;;;-145.69;58.07;52303.78;4938085;29;20203;-79
2023/12/14 10:31:41;;;;;;;1.73;0.90;;;;;;;-145.69;58.00;52309.72;4938043;29;20200;-80
2023/12/14 10:34:08;;;;;;;1.10;1.00;;;;;;;-145.69;58.41;52270.13;4937984;29;20206;-79
2023/12/14 10:36:36;;;;;;;0.97;0.93;;;;;;;-145.69;59.13;52285.97;4937873;29;20199;-78
2023/12/14 10:39:05;;;;;;;0.97;0.97;;;;;;;-145.69;59.45;52303.78;4938017;29;20204;-78
2023/12/14 10:41:34;;;;;;;0.93;0.90;;;;;;;-145.69;59.60;52297.84;4937986;29;20282;-78
2023/12/14 10:44:02;;;;;;;0.93;0.80;;;;;;;-145.69;59.70;52311.69;4937804;29;20677;-78
2023/12/14 10:46:29;;;;;;;0.70;0.70;;;;;;;-145.69;60.98;52307.75;4937568;29;20290;-78
2023/12/14 10:48:55;;;;;;;1.10;1.00;;;;;;;-145.69;60.84;52309.72;4935213;29;20630;-77
2023/12/14 10:51:27;;;;;;;1.60;1.00;;;;;;;-145.69;61.79;52297.84;4935823;29;20206;-78
2023/12/14 10:53:54;;;;;;;1.03;0.93;;;;;;;-145.69;61.71;52325.56;4937778;29;20221;-78
2023/12/14 10:56:21;;;;;;;1.20;1.10;;;;;;;-145.69;61.92;52297.84;4937333;29;20238;-78
2023/12/14 10:58:52;;;;;;;1.30;1.20;;;;;;;-145.69;61.91;52305.75;4937513;29;20207;-79
2023/12/14 11:01:21;;;;;;;1.30;1.00;;;;;;;-145.69;61.64;52289.91;4937523;29;20215;-78
2023/12/14 11:03:49;;;;;;;3.23;1.30;;;;;;;-145.69;64.24;52321.59;4937055;29;20669;-79
2023/12/14 11:06:23;;;;;;;1.37;1.03;;;;;;;-145.69;63.65;52329.53;4937263;29;20255;-78
2023/12/14 11:08:49;;;;;;;5.73;1.17;;;;;;;-145.69;63.64;52293.88;4936333;29;20285;-78
2023/12/14 11:11:20;;;;;;;1.57;1.30;;;;;;;-145.69;64.24;52311.69;4937268;29;20218;-78
2023/12/14 11:13:49;;;;;;;3.03;1.20;;;;;;;-145.69;64.69;52295.84;4937367;29;20208;-78
2023/12/14 11:16:17;;;;;;;1.17;1.03;;;;;;;-145.69;64.58;52295.84;4937337;29;20239;-79